sensor_id;sensor_type;location;lat;lon;timestamp;P1;durP1;ratioP1;P2;durP2;ratioP2
58770;SDS011;44539;42.962;1.596;2023-01-28T08:09:35;5.70;;;3.33;;
58770;SDS011;44539;42.962;1.596;2023-01-28T08:12:01;5.53;;;2.40;;
58770;SDS011;44539;42.962;1.596;2023-01-28T08:14:27;4.25;;;2.08;;
58770;SDS011;44539;42.962;1.596;2023-01-28T08:16:53;8.57;;;2.67;;
58770;SDS011;44539;42.962;1.596;2023-01-28T08:19:18;6.95;;;2.60;;
58770;SDS011;44539;42.962;1.596;2023-01-28T08:21:48;6.22;;;2.95;;
58770;SDS011;44539;42.962;1.596;2023-01-28T08:24:14;6.15;;;2.88;;
58770;SDS011;44539;42.962;1.596;2023-01-28T08:26:40;5.65;;;2.42;;
58770;SDS011;44539;42.962;1.596;2023-01-28T08:29:06;7.82;;;2.30;;
58770;SDS011;44539;42.962;1.596;2023-01-28T08:31:31;5.72;;;2.40;;
58770;SDS011;44539;42.962;1.596;2023-01-28T08:33:57;4.43;;;2.40;;
58770;SDS011;44539;42.962;1.596;2023-01-28T08:36:22;7.35;;;2.35;;
58770;SDS011;44539;42.962;1.596;2023-01-28T08:38:51;5.03;;;2.17;;
58770;SDS011;44539;42.962;1.596;2023-01-28T08:41:19;5.63;;;2.60;;
58770;SDS011;44539;42.962;1.596;2023-01-28T08:43:46;7.00;;;2.97;;
58770;SDS011;44539;42.962;1.596;2023-01-28T08:46:11;5.45;;;2.65;;
58770;SDS011;44539;42.962;1.596;2023-01-28T08:48:37;6.65;;;3.20;;
58770;SDS011;44539;42.962;1.596;2023-01-28T08:51:02;6.85;;;2.38;;
58770;SDS011;44539;42.962;1.596;2023-01-28T08:53:28;7.32;;;2.72;;
58770;SDS011;44539;42.962;1.596;2023-01-28T08:55:53;5.90;;;2.97;;
58770;SDS011;44539;42.962;1.596;2023-01-28T08:58:19;4.82;;;2.75;;
58770;SDS011;44539;42.962;1.596;2023-01-28T09:00:45;9.55;;;2.72;;
58770;SDS011;44539;42.962;1.596;2023-01-28T09:03:10;5.53;;;2.90;;
58770;SDS011;44539;42.962;1.596;2023-01-28T09:05:36;8.65;;;3.47;;
58770;SDS011;44539;42.962;1.596;2023-01-28T09:08:03;7.75;;;3.20;;
58770;SDS011;44539;42.962;1.596;2023-01-28T09:10:30;4.40;;;2.25;;
58770;SDS011;44539;42.962;1.596;2023-01-28T09:12:55;6.93;;;3.28;;
58770;SDS011;44539;42.962;1.596;2023-01-28T09:15:20;6.30;;;2.47;;
58770;SDS011;44539;42.962;1.596;2023-01-28T09:17:46;5.72;;;3.15;;
58770;SDS011;44539;42.962;1.596;2023-01-28T09:20:11;7.07;;;3.50;;
58770;SDS011;44539;42.962;1.596;2023-01-28T09:22:37;10.23;;;3.53;;
58770;SDS011;44539;42.962;1.596;2023-01-28T09:25:03;9.65;;;4.15;;
58770;SDS011;44539;42.962;1.596;2023-01-28T09:27:28;11.10;;;3.22;;
58770;SDS011;44539;42.962;1.596;2023-01-28T09:29:54;8.57;;;3.40;;
58770;SDS011;44539;42.962;1.596;2023-01-28T09:32:19;7.10;;;3.42;;
58770;SDS011;44539;42.962;1.596;2023-01-28T09:34:45;7.68;;;3.15;;
58770;SDS011;44539;42.962;1.596;2023-01-28T09:37:10;9.93;;;3.40;;
58770;SDS011;44539;42.962;1.596;2023-01-28T09:39:36;7.18;;;3.30;;
58770;SDS011;44539;42.962;1.596;2023-01-28T09:45:00;6.75;;;2.88;;
58770;SDS011;44539;42.962;1.596;2023-01-28T09:47:41;5.07;;;3.05;;
58770;SDS011;44539;42.962;1.596;2023-01-28T09:50:15;8.38;;;3.70;;
58770;SDS011;44539;42.962;1.596;2023-01-28T09:52:56;7.53;;;3.63;;
58770;SDS011;44539;42.962;1.596;2023-01-28T09:55:30;8.38;;;4.03;;
58770;SDS011;44539;42.962;1.596;2023-01-28T09:57:59;8.30;;;4.05;;
58770;SDS011;44539;42.962;1.596;2023-01-28T10:13:52;8.80;;;3.78;;
58770;SDS011;44539;42.962;1.596;2023-01-28T10:16:37;7.68;;;3.28;;
58770;SDS011;44539;42.962;1.596;2023-01-28T10:24:34;8.02;;;3.67;;
58770;SDS011;44539;42.962;1.596;2023-01-28T10:27:23;8.02;;;4.03;;
58770;SDS011;44539;42.962;1.596;2023-01-28T10:29:53;13.35;;;4.95;;
58770;SDS011;44539;42.962;1.596;2023-01-28T10:32:30;8.98;;;3.70;;
58770;SDS011;44539;42.962;1.596;2023-01-28T10:35:01;7.25;;;3.95;;
58770;SDS011;44539;42.962;1.596;2023-01-28T10:37:28;8.65;;;3.60;;
58770;SDS011;44539;42.962;1.596;2023-01-28T10:39:57;7.72;;;3.72;;
58770;SDS011;44539;42.962;1.596;2023-01-28T10:42:34;8.77;;;3.72;;
58770;SDS011;44539;42.962;1.596;2023-01-28T10:50:19;7.40;;;3.45;;
58770;SDS011;44539;42.962;1.596;2023-01-28T10:52:57;6.45;;;3.42;;
58770;SDS011;44539;42.962;1.596;2023-01-28T10:55:28;5.75;;;3.35;;
58770;SDS011;44539;42.962;1.596;2023-01-28T10:58:24;6.47;;;3.40;;
58770;SDS011;44539;42.962;1.596;2023-01-28T11:00:55;9.15;;;4.15;;
58770;SDS011;44539;42.962;1.596;2023-01-28T11:03:24;6.65;;;3.72;;
58770;SDS011;44539;42.962;1.596;2023-01-28T11:05:52;9.10;;;3.92;;
58770;SDS011;44539;42.962;1.596;2023-01-28T11:08:19;6.43;;;3.40;;
58770;SDS011;44539;42.962;1.596;2023-01-28T11:10:46;7.20;;;3.40;;
58770;SDS011;44539;42.962;1.596;2023-01-28T11:13:16;6.55;;;3.40;;
58770;SDS011;44539;42.962;1.596;2023-01-28T11:16:04;9.00;;;3.80;;
58770;SDS011;44539;42.962;1.596;2023-01-28T11:18:46;10.63;;;4.05;;
58770;SDS011;44539;42.962;1.596;2023-01-28T11:21:26;9.90;;;3.65;;
58770;SDS011;44539;42.962;1.596;2023-01-28T11:26:32;7.88;;;3.47;;
58770;SDS011;44539;42.962;1.596;2023-01-28T11:29:01;7.15;;;3.58;;
58770;SDS011;44539;42.962;1.596;2023-01-28T11:31:26;7.85;;;3.55;;
58770;SDS011;44539;42.962;1.596;2023-01-28T11:33:54;9.57;;;3.97;;
58770;SDS011;44539;42.962;1.596;2023-01-28T11:36:26;8.18;;;3.92;;
58770;SDS011;44539;42.962;1.596;2023-01-28T11:38:54;8.00;;;3.90;;
58770;SDS011;44539;42.962;1.596;2023-01-28T11:41:27;7.15;;;3.22;;
58770;SDS011;44539;42.962;1.596;2023-01-28T11:43:54;6.53;;;3.15;;
58770;SDS011;44539;42.962;1.596;2023-01-28T11:52:03;7.00;;;3.63;;
58770;SDS011;44539;42.962;1.596;2023-01-28T11:54:55;8.45;;;3.90;;
58770;SDS011;44539;42.962;1.596;2023-01-28T12:06:01;7.78;;;3.70;;
